createdAt,value
2022-12-05T00:01:21.732Z,71.43
2022-12-05T00:03:49.748Z,75.17
2022-12-05T00:06:17.181Z,73.00
2022-12-05T00:08:44.040Z,74.23
2022-12-05T00:11:13.283Z,76.27
2022-12-05T00:13:40.962Z,76.40
2022-12-05T00:16:09.836Z,75.67
2022-12-05T00:18:36.558Z,80.30
2022-12-05T00:21:04.429Z,74.67
2022-12-05T00:23:32.608Z,70.23
2022-12-05T00:26:06.576Z,72.30
2022-12-05T00:28:34.781Z,76.73
2022-12-05T00:31:07.083Z,71.37
2022-12-05T00:33:34.803Z,75.43
2022-12-05T00:36:09.942Z,72.57
2022-12-05T00:38:37.208Z,72.00
2022-12-05T00:41:05.139Z,76.23
2022-12-05T00:43:32.337Z,74.17
2022-12-05T00:46:07.827Z,65.60
2022-12-05T00:48:34.747Z,77.57
2022-12-05T00:51:15.509Z,81.13
2022-12-05T00:53:43.172Z,68.70
2022-12-05T00:56:14.522Z,73.57
2022-12-05T00:58:41.481Z,71.97
2022-12-05T01:01:12.521Z,71.07
2022-12-05T01:03:40.074Z,66.20
2022-12-05T01:06:07.668Z,79.73
2022-12-05T01:08:35.506Z,68.70
2022-12-05T01:11:02.477Z,69.30
2022-12-05T01:13:29.647Z,71.47
2022-12-05T01:15:56.892Z,70.70
2022-12-05T01:18:24.540Z,65.40
2022-12-05T01:20:51.890Z,72.53
2022-12-05T01:23:18.785Z,77.20
2022-12-05T01:25:48.089Z,75.47
2022-12-05T01:28:15.575Z,72.53
2022-12-05T01:30:46.226Z,69.20
2022-12-05T01:33:13.006Z,79.97
2022-12-05T01:35:40.892Z,66.40
2022-12-05T01:38:08.008Z,73.27
2022-12-05T01:40:38.777Z,73.43
2022-12-05T01:43:14.253Z,84.07
2022-12-05T01:45:44.174Z,75.97
2022-12-05T01:48:18.831Z,71.37
2022-12-05T01:50:48.039Z,77.47
2022-12-05T01:53:16.186Z,75.07
2022-12-05T01:55:43.861Z,71.47
2022-12-05T01:58:10.928Z,68.03
2022-12-05T02:00:39.339Z,80.00
2022-12-05T02:03:15.057Z,76.93
2022-12-05T02:05:41.958Z,72.83
2022-12-05T02:08:10.484Z,77.73
2022-12-05T02:10:41.402Z,75.93
2022-12-05T02:13:31.853Z,73.83
2022-12-05T02:16:05.966Z,78.27
2022-12-05T02:19:04.432Z,73.33
2022-12-05T02:22:02.590Z,69.93
2022-12-05T02:24:45.379Z,73.73
2022-12-05T02:27:30.069Z,75.07
2022-12-05T02:30:07.005Z,72.73
2022-12-05T02:33:03.533Z,74.63
2022-12-05T02:35:41.519Z,76.27
2022-12-05T02:38:39.447Z,79.27
2022-12-05T02:41:12.808Z,73.40
2022-12-05T02:43:57.152Z,79.10
2022-12-05T02:46:27.374Z,80.27
2022-12-05T02:48:59.728Z,73.47
2022-12-05T02:51:33.376Z,86.03
2022-12-05T02:54:03.974Z,75.60
2022-12-05T02:56:33.342Z,73.53
2022-12-05T02:59:01.027Z,69.83
2022-12-05T03:01:31.379Z,73.27
2022-12-05T03:04:01.360Z,73.73
2022-12-05T03:06:42.171Z,67.10
2022-12-05T03:09:32.673Z,73.90
2022-12-05T03:12:17.941Z,72.00
2022-12-05T03:14:53.220Z,68.03
2022-12-05T03:17:26.958Z,61.83
2022-12-05T03:19:59.832Z,65.40
2022-12-05T03:22:33.056Z,68.03
2022-12-05T03:25:00.946Z,61.47
2022-12-05T03:27:52.126Z,62.60
2022-12-05T03:30:21.700Z,54.20
2022-12-05T03:33:12.684Z,56.20
2022-12-05T03:36:05.924Z,59.80
2022-12-05T03:38:56.720Z,52.33
2022-12-05T03:41:42.987Z,56.23
2022-12-05T03:44:14.535Z,53.63
2022-12-05T03:46:43.118Z,53.83
2022-12-05T03:49:34.351Z,50.17
2022-12-05T03:52:09.892Z,48.83
2022-12-05T03:54:41.990Z,52.87
2022-12-05T03:57:23.301Z,54.37
2022-12-05T04:00:04.264Z,50.10
2022-12-05T04:02:45.476Z,52.00
2022-12-05T04:05:35.650Z,52.03
2022-12-05T04:08:06.405Z,42.43
2022-12-05T04:10:48.492Z,46.70
2022-12-05T04:13:30.690Z,44.43
2022-12-05T04:16:21.423Z,49.83
2022-12-05T04:18:57.664Z,44.13
2022-12-05T04:21:38.360Z,45.73
2022-12-05T04:24:35.296Z,43.47
2022-12-05T04:27:18.159Z,45.63
2022-12-05T04:30:04.077Z,43.37
2022-12-05T04:32:53.940Z,46.33
2022-12-05T04:35:30.151Z,45.57
2022-12-05T04:38:03.984Z,41.37
2022-12-05T04:40:38.142Z,45.73
2022-12-05T04:43:06.778Z,44.50
2022-12-05T04:45:37.188Z,46.20
2022-12-05T04:48:12.435Z,46.37
2022-12-05T04:50:42.733Z,43.10
2022-12-05T04:53:12.229Z,47.13
2022-12-05T04:55:42.355Z,42.60
2022-12-05T04:58:29.865Z,43.17
2022-12-05T05:01:03.625Z,43.57
2022-12-05T05:04:07.079Z,41.73
2022-12-05T05:06:36.452Z,44.50
2022-12-05T05:09:03.573Z,40.63
2022-12-05T05:11:33.276Z,43.53
2022-12-05T05:14:00.298Z,39.03
2022-12-05T05:16:32.984Z,38.43
2022-12-05T05:18:59.969Z,37.63
2022-12-05T05:21:37.907Z,37.17
2022-12-05T05:24:05.509Z,34.97
2022-12-05T05:26:36.195Z,37.47
2022-12-05T05:29:02.940Z,33.73
2022-12-05T05:31:29.631Z,30.70
2022-12-05T05:33:57.582Z,31.53
2022-12-05T05:36:26.965Z,31.20
2022-12-05T05:38:56.341Z,30.07
2022-12-05T05:41:26.560Z,31.60
2022-12-05T05:43:53.860Z,30.57
2022-12-05T05:46:23.584Z,29.43
2022-12-05T05:48:50.891Z,27.00
2022-12-05T05:51:18.638Z,26.47
2022-12-05T05:53:45.783Z,29.40
2022-12-05T05:56:21.191Z,27.13
2022-12-05T05:58:54.104Z,27.70
2022-12-05T06:01:20.673Z,27.77
2022-12-05T06:03:47.376Z,27.47
2022-12-05T06:06:14.947Z,20.57
2022-12-05T06:08:43.275Z,22.67
2022-12-05T06:11:13.356Z,23.27
2022-12-05T06:13:40.005Z,20.70
2022-12-05T06:16:08.372Z,21.03
2022-12-05T06:18:35.330Z,20.53
2022-12-05T06:21:02.554Z,24.53
2022-12-05T06:23:29.233Z,23.27
2022-12-05T06:25:56.739Z,23.37
2022-12-05T06:28:25.774Z,19.57
2022-12-05T06:30:52.705Z,20.53
2022-12-05T06:33:20.071Z,23.40
2022-12-05T06:35:47.340Z,22.10
2022-12-05T06:38:14.320Z,21.77
2022-12-05T06:40:42.565Z,21.63
2022-12-05T06:43:09.498Z,20.83
2022-12-05T06:45:38.700Z,17.57
2022-12-05T06:48:06.047Z,23.30
2022-12-05T06:50:33.007Z,21.80
2022-12-05T06:52:59.622Z,20.77
2022-12-05T06:55:26.216Z,21.67
2022-12-05T06:57:52.820Z,20.47
2022-12-05T07:00:58.043Z,21.20
2022-12-05T07:03:24.804Z,21.37
2022-12-05T07:05:51.372Z,20.40
2022-12-05T07:08:17.995Z,22.47
2022-12-05T07:10:51.258Z,23.07
2022-12-05T07:13:18.704Z,21.40
2022-12-05T07:15:49.265Z,21.23
2022-12-05T07:18:16.865Z,19.50
2022-12-05T07:21:10.765Z,21.80
2022-12-05T07:23:30.980Z,22.60
2022-12-05T07:25:57.783Z,17.83
2022-12-05T07:28:25.228Z,20.07
2022-12-05T07:31:06.030Z,21.40
2022-12-05T07:33:32.993Z,20.37
2022-12-05T07:36:09.166Z,22.53
2022-12-05T07:38:36.123Z,18.83
2022-12-05T07:41:13.463Z,22.10
2022-12-05T07:43:41.283Z,21.77
2022-12-05T07:46:09.216Z,22.10
2022-12-05T07:48:35.960Z,25.83
2022-12-05T07:51:04.576Z,24.87
2022-12-05T07:53:32.369Z,29.67
2022-12-05T07:56:00.484Z,24.90
2022-12-05T07:58:29.002Z,24.47
2022-12-05T08:00:56.339Z,25.07
2022-12-05T08:03:23.008Z,24.37
2022-12-05T08:05:50.020Z,20.10
2022-12-05T08:08:16.676Z,21.53
2022-12-05T08:10:43.276Z,21.77
2022-12-05T08:13:09.851Z,20.77
2022-12-05T08:15:39.435Z,18.73
2022-12-05T08:18:06.089Z,21.03
2022-12-05T08:20:32.641Z,21.73
2022-12-05T08:22:59.339Z,19.60
2022-12-05T08:25:25.886Z,22.33
2022-12-05T08:27:52.478Z,20.80
2022-12-05T08:30:19.646Z,21.47
2022-12-05T08:32:46.199Z,21.60
2022-12-05T08:35:13.133Z,22.47
2022-12-05T08:37:39.662Z,23.47
2022-12-05T08:40:06.831Z,21.23
2022-12-05T08:42:33.360Z,22.80
2022-12-05T08:45:00.201Z,22.93
2022-12-05T08:47:27.366Z,20.03
2022-12-05T08:49:53.999Z,19.33
2022-12-05T08:52:21.852Z,21.80
2022-12-05T08:54:48.438Z,23.00
2022-12-05T08:57:14.977Z,19.80
2022-12-05T08:59:41.509Z,21.33
2022-12-05T09:02:10.030Z,24.17
2022-12-05T09:04:36.691Z,22.80
2022-12-05T09:07:03.669Z,23.03
2022-12-05T09:09:30.325Z,20.03
2022-12-05T09:11:57.817Z,18.67
2022-12-05T09:14:24.419Z,18.13
2022-12-05T09:16:50.994Z,18.43
2022-12-05T09:19:24.837Z,21.23
2022-12-05T09:21:51.461Z,19.37
2022-12-05T09:24:18.081Z,19.77
2022-12-05T09:26:44.951Z,18.27
2022-12-05T09:29:16.583Z,19.50
2022-12-05T09:31:44.650Z,19.53
2022-12-05T09:34:13.317Z,19.20
2022-12-05T09:36:39.869Z,23.00
2022-12-05T09:39:07.076Z,19.40
2022-12-05T09:42:10.305Z,20.37
2022-12-05T09:44:59.392Z,16.90
2022-12-05T09:47:45.825Z,20.00
2022-12-05T09:50:28.436Z,20.23
2022-12-05T09:53:27.379Z,19.20
2022-12-05T09:56:11.727Z,19.97
2022-12-05T09:58:53.023Z,18.17
2022-12-05T10:01:31.684Z,15.93
2022-12-05T10:04:10.868Z,19.73
2022-12-05T10:06:42.888Z,19.13
2022-12-05T10:09:28.402Z,17.83
2022-12-05T10:12:14.541Z,17.67
2022-12-05T10:15:23.325Z,19.37
2022-12-05T10:18:06.043Z,18.97
2022-12-05T10:20:39.440Z,19.67
2022-12-05T10:23:28.151Z,18.33
2022-12-05T10:26:06.135Z,19.07
2022-12-05T10:28:48.195Z,19.37
2022-12-05T10:31:19.407Z,25.00
2022-12-05T10:33:57.148Z,21.83
2022-12-05T10:36:24.407Z,19.93
2022-12-05T10:38:51.014Z,23.17
2022-12-05T10:41:20.972Z,24.50
2022-12-05T10:43:49.083Z,27.00
2022-12-05T10:46:17.558Z,40.83
2022-12-05T10:48:44.559Z,35.67
2022-12-05T10:51:16.429Z,32.60
2022-12-05T10:53:52.652Z,23.43
2022-12-05T10:56:40.094Z,22.03
2022-12-05T10:59:09.986Z,22.77
2022-12-05T11:01:38.309Z,23.50
2022-12-05T11:04:19.456Z,20.63
2022-12-05T11:07:01.484Z,21.77
2022-12-05T11:09:33.866Z,21.10
2022-12-05T11:12:23.659Z,24.83
2022-12-05T11:15:02.886Z,21.20
2022-12-05T11:17:38.546Z,25.67
2022-12-05T11:20:31.537Z,20.80
2022-12-05T11:22:59.324Z,23.73
2022-12-05T11:25:34.894Z,21.17
2022-12-05T11:28:21.772Z,24.07
2022-12-05T11:31:16.665Z,22.97
2022-12-05T11:33:43.421Z,20.40
2022-12-05T11:36:19.377Z,21.53
2022-12-05T11:38:46.682Z,21.37
2022-12-05T11:41:46.142Z,20.07
2022-12-05T11:44:32.077Z,20.10
2022-12-05T11:47:17.821Z,24.43
2022-12-05T11:50:08.042Z,21.47
2022-12-05T11:53:06.897Z,21.03
2022-12-05T11:55:53.247Z,21.27
2022-12-05T11:58:48.112Z,23.13
2022-12-05T12:01:40.335Z,22.93
2022-12-05T12:04:19.056Z,22.97
2022-12-05T12:07:09.552Z,22.90
2022-12-05T12:10:00.202Z,26.73
2022-12-05T12:12:56.385Z,25.27
2022-12-05T12:15:34.013Z,22.60
2022-12-05T12:18:14.065Z,21.53
2022-12-05T12:21:16.545Z,21.17
2022-12-05T12:23:59.986Z,21.47
2022-12-05T12:26:57.229Z,21.13
2022-12-05T12:29:37.972Z,20.67
2022-12-05T12:32:55.501Z,20.77
2022-12-05T12:35:30.588Z,20.80
2022-12-05T12:38:28.620Z,21.83
2022-12-05T12:40:59.450Z,23.57
2022-12-05T12:44:02.512Z,24.27
2022-12-05T12:46:52.682Z,23.47
2022-12-05T12:49:39.145Z,21.70
2022-12-05T12:52:22.596Z,25.13
2022-12-05T12:55:20.210Z,22.17
2022-12-05T12:58:17.211Z,26.33
2022-12-05T13:01:09.388Z,26.73
2022-12-05T13:03:49.906Z,28.67
2022-12-05T13:06:35.160Z,33.67
2022-12-05T13:09:10.458Z,35.70
2022-12-05T13:11:41.175Z,29.83
2022-12-05T13:14:14.385Z,28.00
2022-12-05T13:16:48.245Z,26.93
2022-12-05T13:19:38.974Z,28.37
2022-12-05T13:22:08.360Z,27.37
2022-12-05T13:24:35.554Z,28.33
2022-12-05T13:27:06.967Z,29.13
2022-12-05T13:29:42.807Z,30.20
2022-12-05T13:32:28.386Z,31.37
2022-12-05T13:35:00.820Z,30.03
2022-12-05T13:37:48.355Z,32.73
2022-12-05T13:40:43.771Z,32.43
2022-12-05T13:43:12.832Z,30.47
2022-12-05T13:45:40.627Z,29.30
2022-12-05T13:48:22.523Z,26.93
2022-12-05T13:50:58.735Z,30.10
2022-12-05T13:53:42.367Z,30.60
2022-12-05T13:56:14.937Z,33.20
2022-12-05T13:58:47.760Z,34.40
2022-12-05T14:01:47.684Z,32.20
2022-12-05T14:04:45.514Z,32.57
2022-12-05T14:07:12.426Z,32.90
2022-12-05T14:09:58.622Z,31.73
2022-12-05T14:12:25.240Z,35.10
2022-12-05T14:14:59.280Z,33.67
2022-12-05T14:17:45.217Z,36.47
2022-12-05T14:20:46.841Z,34.03
2022-12-05T14:23:41.134Z,35.80
2022-12-05T14:27:07.123Z,36.40
2022-12-05T14:29:56.535Z,36.53
2022-12-05T14:32:29.698Z,37.33
2022-12-05T14:35:04.515Z,37.37
2022-12-05T14:37:36.286Z,37.37
2022-12-05T14:40:25.408Z,41.73
2022-12-05T14:42:59.895Z,40.83
2022-12-05T14:45:42.036Z,39.83
2022-12-05T14:48:14.731Z,37.53
2022-12-05T14:50:50.487Z,39.50
2022-12-05T14:53:37.845Z,39.67
2022-12-05T14:56:23.047Z,41.13
2022-12-05T14:58:59.749Z,42.37
2022-12-05T15:01:34.914Z,42.80
2022-12-05T15:04:22.621Z,45.50
2022-12-05T15:07:12.134Z,43.17
2022-12-05T15:09:58.429Z,44.07
2022-12-05T15:12:43.271Z,47.87
2022-12-05T15:15:19.929Z,45.87
2022-12-05T15:17:54.776Z,47.57
2022-12-05T15:20:54.327Z,46.50
2022-12-05T15:23:59.354Z,43.43
2022-12-05T15:26:50.944Z,45.17
2022-12-05T15:29:20.537Z,47.73
2022-12-05T15:31:53.179Z,49.63
2022-12-05T15:34:29.256Z,49.87
2022-12-05T15:37:19.144Z,47.80
2022-12-05T15:39:58.434Z,54.53
2022-12-05T15:42:36.822Z,49.50
2022-12-05T15:45:15.270Z,54.27
2022-12-05T15:47:49.310Z,49.33
2022-12-05T15:50:22.658Z,53.03
2022-12-05T15:52:58.047Z,47.10
2022-12-05T15:55:40.392Z,56.97
2022-12-05T15:58:31.437Z,55.17
2022-12-05T16:01:03.335Z,52.40
2022-12-05T16:03:45.873Z,53.80
2022-12-05T16:06:37.822Z,57.07
2022-12-05T16:09:14.466Z,62.07
2022-12-05T16:12:10.964Z,62.40
2022-12-05T16:17:26.305Z,60.63
2022-12-05T16:19:53.052Z,53.37
2022-12-05T16:22:23.600Z,56.73
2022-12-05T16:25:13.577Z,56.10
2022-12-05T16:27:40.927Z,48.90
2022-12-05T16:30:17.670Z,52.57
2022-12-05T16:32:45.940Z,52.90
2022-12-05T16:35:37.575Z,50.53
2022-12-05T16:38:12.044Z,53.53
2022-12-05T16:40:42.166Z,48.67
2022-12-05T16:43:20.273Z,51.43
2022-12-05T16:45:48.377Z,49.63
2022-12-05T16:48:27.664Z,53.50
2022-12-05T16:51:17.277Z,57.77
2022-12-05T16:53:49.790Z,48.80
2022-12-05T16:56:26.081Z,60.60
2022-12-05T16:58:52.656Z,49.17
2022-12-05T17:01:24.928Z,52.17
2022-12-05T17:03:53.687Z,51.50
2022-12-05T17:06:23.184Z,50.33
2022-12-05T17:08:51.258Z,50.30
2022-12-05T17:11:25.902Z,51.03
2022-12-05T17:13:54.043Z,50.03
2022-12-05T17:16:21.278Z,57.83
2022-12-05T17:18:47.860Z,49.03
2022-12-05T17:21:17.866Z,51.77
2022-12-05T17:23:47.724Z,51.10
2022-12-05T17:26:17.635Z,45.93
2022-12-05T17:28:44.666Z,47.47
2022-12-05T17:31:16.659Z,48.17
2022-12-05T17:33:44.019Z,40.10
2022-12-05T17:36:10.775Z,49.63
2022-12-05T17:38:37.337Z,42.50
2022-12-05T17:41:07.195Z,49.40
2022-12-05T17:43:34.331Z,49.30
2022-12-05T17:46:01.487Z,47.73
2022-12-05T17:48:28.493Z,44.50
2022-12-05T17:50:57.702Z,44.90
2022-12-05T17:53:24.466Z,41.77
2022-12-05T17:55:51.409Z,40.30
2022-12-05T17:58:18.352Z,42.10
2022-12-05T18:00:46.647Z,49.47
2022-12-05T18:03:16.135Z,46.53
2022-12-05T18:05:43.511Z,48.03
2022-12-05T18:08:10.650Z,43.90
2022-12-05T18:10:45.252Z,47.40
2022-12-05T18:13:12.161Z,43.10
2022-12-05T18:15:43.293Z,49.53
2022-12-05T18:18:17.523Z,47.00
2022-12-05T18:20:45.169Z,41.80
2022-12-05T18:23:12.139Z,46.50
2022-12-05T18:25:40.112Z,47.20
2022-12-05T18:28:07.103Z,44.53
2022-12-05T18:30:34.128Z,43.40
2022-12-05T18:33:00.726Z,48.80
2022-12-05T18:35:42.566Z,46.47
2022-12-05T18:38:12.691Z,44.30
2022-12-05T18:40:39.745Z,41.80
2022-12-05T18:43:07.008Z,41.20
2022-12-05T18:45:33.793Z,41.63
2022-12-05T18:48:16.418Z,37.47
2022-12-05T18:50:47.127Z,40.57
2022-12-05T18:53:14.366Z,43.70
2022-12-05T18:56:13.070Z,44.17
2022-12-05T18:58:30.649Z,41.30
2022-12-05T19:01:17.653Z,42.13
2022-12-05T19:03:44.245Z,40.33
2022-12-05T19:06:13.224Z,38.50
2022-12-05T19:08:44.633Z,36.30
2022-12-05T19:11:16.793Z,34.23
2022-12-05T19:13:43.498Z,31.43
2022-12-05T19:16:17.265Z,37.47
2022-12-05T19:18:48.337Z,36.27
2022-12-05T19:21:15.186Z,35.37
2022-12-05T19:23:41.892Z,32.00
2022-12-05T19:26:10.052Z,36.10
2022-12-05T19:28:37.733Z,38.00
2022-12-05T19:31:10.230Z,37.67
2022-12-05T19:33:48.677Z,36.37
2022-12-05T19:36:37.370Z,32.07
2022-12-05T19:39:14.067Z,38.90
2022-12-05T19:41:41.260Z,31.33
2022-12-05T19:44:08.488Z,36.67
2022-12-05T19:46:36.641Z,35.23
2022-12-05T19:49:12.625Z,32.93
2022-12-05T19:51:39.521Z,35.67
2022-12-05T19:54:07.246Z,32.73
2022-12-05T19:56:35.607Z,36.47
2022-12-05T19:59:02.640Z,37.67
2022-12-05T20:01:31.756Z,34.73
2022-12-05T20:04:03.764Z,39.67
2022-12-05T20:06:36.028Z,35.67
2022-12-05T20:09:03.609Z,40.60
2022-12-05T20:11:33.846Z,38.20
2022-12-05T20:14:01.751Z,40.37
2022-12-05T20:16:29.410Z,40.53
2022-12-05T20:18:58.938Z,41.50
2022-12-05T20:21:27.585Z,38.90
2022-12-05T20:23:54.622Z,46.87
2022-12-05T20:26:30.358Z,42.40
2022-12-05T20:28:58.631Z,45.63
2022-12-05T20:31:31.449Z,51.90
2022-12-05T20:33:58.292Z,48.37
2022-12-05T20:36:27.335Z,54.67
2022-12-05T20:39:06.474Z,60.50
2022-12-05T20:41:33.780Z,66.43
2022-12-05T20:44:02.633Z,70.47
2022-12-05T20:46:29.955Z,61.90
2022-12-05T20:48:56.716Z,79.77
2022-12-05T20:51:31.850Z,85.97
2022-12-05T20:54:00.679Z,83.87
2022-12-05T20:56:31.437Z,81.73
2022-12-05T20:59:01.049Z,89.93
2022-12-05T21:01:29.348Z,70.37
2022-12-05T21:03:56.305Z,80.43
2022-12-05T21:06:22.856Z,94.63
2022-12-05T21:08:50.883Z,101.43
2022-12-05T21:11:17.547Z,72.53
2022-12-05T21:13:44.343Z,54.03
2022-12-05T21:16:16.821Z,45.43
2022-12-05T21:18:44.180Z,42.73
2022-12-05T21:21:19.182Z,40.57
2022-12-05T21:23:51.824Z,39.33
2022-12-05T21:26:25.899Z,39.67
2022-12-05T21:28:56.361Z,39.47
2022-12-05T21:31:25.889Z,39.30
2022-12-05T21:33:54.647Z,37.33
2022-12-05T21:36:21.959Z,39.47
2022-12-05T21:38:55.424Z,39.47
2022-12-05T21:41:26.535Z,38.53
2022-12-05T21:43:55.263Z,34.17
2022-12-05T21:46:23.462Z,31.93
2022-12-05T21:48:50.144Z,30.83
2022-12-05T21:51:17.161Z,34.10
2022-12-05T21:53:43.848Z,27.63
2022-12-05T21:56:16.169Z,27.13
2022-12-05T21:58:44.383Z,27.80
2022-12-05T22:01:17.432Z,30.73
2022-12-05T22:03:44.641Z,26.07
2022-12-05T22:06:12.490Z,24.47
2022-12-05T22:08:39.202Z,30.33
2022-12-05T22:11:11.909Z,25.83
2022-12-05T22:13:39.134Z,30.47
2022-12-05T22:16:06.664Z,26.17
2022-12-05T22:18:33.446Z,32.17
2022-12-05T22:21:05.653Z,32.77
2022-12-05T22:23:33.787Z,30.17
2022-12-05T22:26:06.297Z,32.43
2022-12-05T22:28:34.317Z,36.77
2022-12-05T22:31:03.073Z,29.30
2022-12-05T22:33:31.518Z,38.13
2022-12-05T22:35:59.999Z,25.07
2022-12-05T22:38:30.144Z,28.00
2022-12-05T22:41:01.776Z,27.77
2022-12-05T22:43:30.537Z,26.23
2022-12-05T22:45:57.226Z,28.73
2022-12-05T22:48:24.611Z,29.33
2022-12-05T22:50:53.229Z,25.40
2022-12-05T22:53:24.610Z,31.97
2022-12-05T22:55:51.635Z,28.83
2022-12-05T22:58:18.648Z,26.77
2022-12-05T23:00:46.208Z,26.03
2022-12-05T23:03:13.134Z,26.57
2022-12-05T23:05:44.245Z,27.60
2022-12-05T23:08:11.796Z,25.60
2022-12-05T23:10:39.436Z,26.70
2022-12-05T23:13:07.462Z,28.40
2022-12-05T23:15:36.607Z,28.13
2022-12-05T23:18:03.344Z,24.43
2022-12-05T23:20:29.978Z,32.60
2022-12-05T23:22:57.264Z,32.43
2022-12-05T23:25:23.809Z,27.60
2022-12-05T23:27:50.614Z,32.10
2022-12-05T23:30:17.365Z,29.53
2022-12-05T23:32:44.059Z,28.00
2022-12-05T23:35:11.666Z,25.70
2022-12-05T23:37:38.228Z,30.40
2022-12-05T23:40:06.088Z,27.93
2022-12-05T23:42:32.669Z,27.37
2022-12-05T23:44:59.263Z,28.83
2022-12-05T23:47:25.875Z,25.73
2022-12-05T23:49:52.518Z,26.67
2022-12-05T23:52:19.065Z,23.93
2022-12-05T23:54:45.615Z,26.17
2022-12-05T23:57:17.385Z,22.93
2022-12-05T23:59:45.629Z,26.77
